sensor_id;sensor_type;location;lat;lon;timestamp;P1;durP1;ratioP1;P2;durP2;ratioP2
28724;SDS011;43472;48.980;9.646;2023-04-30T00:03:42;17.90;;;5.57;;
28724;SDS011;43472;48.980;9.646;2023-04-30T00:08:43;14.80;;;7.28;;
28724;SDS011;43472;48.980;9.646;2023-04-30T00:13:45;11.93;;;6.75;;
28724;SDS011;43472;48.980;9.646;2023-04-30T00:18:47;12.25;;;5.80;;
28724;SDS011;43472;48.980;9.646;2023-04-30T00:23:49;12.38;;;6.57;;
28724;SDS011;43472;48.980;9.646;2023-04-30T00:28:51;11.27;;;5.63;;
28724;SDS011;43472;48.980;9.646;2023-04-30T00:33:53;8.32;;;6.00;;
28724;SDS011;43472;48.980;9.646;2023-04-30T00:38:55;10.77;;;6.50;;
28724;SDS011;43472;48.980;9.646;2023-04-30T00:43:57;13.73;;;5.80;;
28724;SDS011;43472;48.980;9.646;2023-04-30T00:49:02;11.40;;;6.30;;
28724;SDS011;43472;48.980;9.646;2023-04-30T00:54:05;9.40;;;6.15;;
28724;SDS011;43472;48.980;9.646;2023-04-30T00:59:08;13.63;;;7.82;;
28724;SDS011;43472;48.980;9.646;2023-04-30T01:04:11;10.80;;;6.78;;
28724;SDS011;43472;48.980;9.646;2023-04-30T01:09:15;11.95;;;6.13;;
28724;SDS011;43472;48.980;9.646;2023-04-30T01:19:37;16.05;;;6.72;;
28724;SDS011;43472;48.980;9.646;2023-04-30T01:30:15;10.02;;;6.65;;
28724;SDS011;43472;48.980;9.646;2023-04-30T01:35:18;14.40;;;7.05;;
28724;SDS011;43472;48.980;9.646;2023-04-30T01:46:11;11.15;;;6.18;;
28724;SDS011;43472;48.980;9.646;2023-04-30T01:51:39;16.65;;;7.18;;
28724;SDS011;43472;48.980;9.646;2023-04-30T02:01:52;15.57;;;6.70;;
28724;SDS011;43472;48.980;9.646;2023-04-30T02:06:54;10.50;;;6.38;;
28724;SDS011;43472;48.980;9.646;2023-04-30T02:11:56;18.38;;;7.13;;
28724;SDS011;43472;48.980;9.646;2023-04-30T02:16:58;12.65;;;6.65;;
28724;SDS011;43472;48.980;9.646;2023-04-30T02:21:59;12.82;;;7.45;;
28724;SDS011;43472;48.980;9.646;2023-04-30T02:27:01;9.98;;;7.18;;
28724;SDS011;43472;48.980;9.646;2023-04-30T02:32:03;19.17;;;9.18;;
28724;SDS011;43472;48.980;9.646;2023-04-30T02:37:05;11.23;;;7.47;;
28724;SDS011;43472;48.980;9.646;2023-04-30T02:42:08;14.10;;;7.80;;
28724;SDS011;43472;48.980;9.646;2023-04-30T02:47:10;12.25;;;8.63;;
28724;SDS011;43472;48.980;9.646;2023-04-30T02:52:11;16.92;;;8.98;;
28724;SDS011;43472;48.980;9.646;2023-04-30T02:57:13;19.30;;;10.20;;
28724;SDS011;43472;48.980;9.646;2023-04-30T03:02:15;13.18;;;8.07;;
28724;SDS011;43472;48.980;9.646;2023-04-30T03:07:21;12.07;;;9.20;;
28724;SDS011;43472;48.980;9.646;2023-04-30T03:12:23;11.85;;;8.02;;
28724;SDS011;43472;48.980;9.646;2023-04-30T03:17:24;11.82;;;8.23;;
28724;SDS011;43472;48.980;9.646;2023-04-30T03:22:26;13.30;;;9.30;;
28724;SDS011;43472;48.980;9.646;2023-04-30T03:27:28;14.55;;;9.13;;
28724;SDS011;43472;48.980;9.646;2023-04-30T03:32:30;14.10;;;9.07;;
28724;SDS011;43472;48.980;9.646;2023-04-30T03:37:32;12.50;;;8.88;;
28724;SDS011;43472;48.980;9.646;2023-04-30T03:42:34;13.07;;;8.25;;
28724;SDS011;43472;48.980;9.646;2023-04-30T03:47:36;15.02;;;10.27;;
28724;SDS011;43472;48.980;9.646;2023-04-30T03:52:38;17.35;;;10.88;;
28724;SDS011;43472;48.980;9.646;2023-04-30T03:57:40;14.07;;;8.98;;
28724;SDS011;43472;48.980;9.646;2023-04-30T04:02:42;14.77;;;9.27;;
28724;SDS011;43472;48.980;9.646;2023-04-30T04:07:47;15.25;;;9.13;;
28724;SDS011;43472;48.980;9.646;2023-04-30T04:12:49;14.55;;;9.32;;
28724;SDS011;43472;48.980;9.646;2023-04-30T04:17:51;13.05;;;8.65;;
28724;SDS011;43472;48.980;9.646;2023-04-30T04:22:53;16.83;;;9.55;;
28724;SDS011;43472;48.980;9.646;2023-04-30T04:27:55;12.25;;;8.80;;
28724;SDS011;43472;48.980;9.646;2023-04-30T04:32:56;12.15;;;8.48;;
28724;SDS011;43472;48.980;9.646;2023-04-30T04:37:59;16.13;;;9.55;;
28724;SDS011;43472;48.980;9.646;2023-04-30T04:43:01;13.20;;;9.27;;
28724;SDS011;43472;48.980;9.646;2023-04-30T04:48:03;13.82;;;9.45;;
28724;SDS011;43472;48.980;9.646;2023-04-30T04:53:06;15.75;;;9.48;;
28724;SDS011;43472;48.980;9.646;2023-04-30T04:58:08;15.13;;;9.57;;
28724;SDS011;43472;48.980;9.646;2023-04-30T05:03:10;14.13;;;10.98;;
28724;SDS011;43472;48.980;9.646;2023-04-30T05:08:12;19.20;;;10.45;;
28724;SDS011;43472;48.980;9.646;2023-04-30T05:13:14;14.18;;;10.82;;
28724;SDS011;43472;48.980;9.646;2023-04-30T05:18:16;13.75;;;10.52;;
28724;SDS011;43472;48.980;9.646;2023-04-30T05:23:18;13.93;;;9.98;;
28724;SDS011;43472;48.980;9.646;2023-04-30T05:28:20;15.18;;;11.27;;
28724;SDS011;43472;48.980;9.646;2023-04-30T05:33:22;14.43;;;10.27;;
28724;SDS011;43472;48.980;9.646;2023-04-30T05:38:24;16.77;;;11.20;;
28724;SDS011;43472;48.980;9.646;2023-04-30T05:43:26;14.43;;;10.75;;
28724;SDS011;43472;48.980;9.646;2023-04-30T05:48:29;14.82;;;11.35;;
28724;SDS011;43472;48.980;9.646;2023-04-30T05:53:31;14.25;;;10.75;;
28724;SDS011;43472;48.980;9.646;2023-04-30T05:58:33;15.60;;;10.68;;
28724;SDS011;43472;48.980;9.646;2023-04-30T06:03:35;14.48;;;10.00;;
28724;SDS011;43472;48.980;9.646;2023-04-30T06:08:38;14.63;;;9.75;;
28724;SDS011;43472;48.980;9.646;2023-04-30T06:13:46;14.18;;;10.27;;
28724;SDS011;43472;48.980;9.646;2023-04-30T06:18:48;20.42;;;10.77;;
28724;SDS011;43472;48.980;9.646;2023-04-30T06:23:53;14.50;;;10.10;;
28724;SDS011;43472;48.980;9.646;2023-04-30T06:28:56;18.08;;;10.57;;
28724;SDS011;43472;48.980;9.646;2023-04-30T06:33:58;14.07;;;10.43;;
28724;SDS011;43472;48.980;9.646;2023-04-30T06:39:00;14.65;;;10.13;;
28724;SDS011;43472;48.980;9.646;2023-04-30T06:44:01;17.30;;;10.95;;
28724;SDS011;43472;48.980;9.646;2023-04-30T06:49:03;12.43;;;9.38;;
28724;SDS011;43472;48.980;9.646;2023-04-30T06:54:05;13.45;;;8.75;;
28724;SDS011;43472;48.980;9.646;2023-04-30T06:59:08;12.95;;;9.18;;
28724;SDS011;43472;48.980;9.646;2023-04-30T07:04:10;14.40;;;9.05;;
28724;SDS011;43472;48.980;9.646;2023-04-30T07:09:12;13.48;;;9.63;;
28724;SDS011;43472;48.980;9.646;2023-04-30T07:14:15;13.68;;;8.20;;
28724;SDS011;43472;48.980;9.646;2023-04-30T07:19:17;11.57;;;8.75;;
28724;SDS011;43472;48.980;9.646;2023-04-30T07:24:20;10.88;;;7.72;;
28724;SDS011;43472;48.980;9.646;2023-04-30T07:29:22;18.23;;;8.45;;
28724;SDS011;43472;48.980;9.646;2023-04-30T07:34:24;9.70;;;7.47;;
28724;SDS011;43472;48.980;9.646;2023-04-30T07:39:26;10.32;;;7.43;;
28724;SDS011;43472;48.980;9.646;2023-04-30T07:44:29;9.07;;;5.95;;
28724;SDS011;43472;48.980;9.646;2023-04-30T07:49:31;7.65;;;6.30;;
28724;SDS011;43472;48.980;9.646;2023-04-30T07:54:33;12.55;;;6.07;;
28724;SDS011;43472;48.980;9.646;2023-04-30T07:59:36;7.28;;;5.85;;
28724;SDS011;43472;48.980;9.646;2023-04-30T08:04:38;7.70;;;4.93;;
28724;SDS011;43472;48.980;9.646;2023-04-30T08:09:40;6.10;;;4.50;;
28724;SDS011;43472;48.980;9.646;2023-04-30T08:14:42;4.85;;;3.47;;
28724;SDS011;43472;48.980;9.646;2023-04-30T08:19:45;7.40;;;4.22;;
28724;SDS011;43472;48.980;9.646;2023-04-30T08:24:47;8.48;;;4.75;;
28724;SDS011;43472;48.980;9.646;2023-04-30T08:29:49;7.07;;;4.28;;
28724;SDS011;43472;48.980;9.646;2023-04-30T08:34:51;5.00;;;3.58;;
28724;SDS011;43472;48.980;9.646;2023-04-30T08:39:53;5.05;;;3.72;;
28724;SDS011;43472;48.980;9.646;2023-04-30T08:44:59;4.63;;;3.42;;
28724;SDS011;43472;48.980;9.646;2023-04-30T08:50:01;5.55;;;3.80;;
28724;SDS011;43472;48.980;9.646;2023-04-30T08:55:05;7.10;;;3.42;;
28724;SDS011;43472;48.980;9.646;2023-04-30T09:00:09;5.63;;;3.50;;
28724;SDS011;43472;48.980;9.646;2023-04-30T09:05:12;3.95;;;3.00;;
28724;SDS011;43472;48.980;9.646;2023-04-30T09:10:16;3.83;;;2.58;;
28724;SDS011;43472;48.980;9.646;2023-04-30T09:15:19;3.55;;;2.60;;
28724;SDS011;43472;48.980;9.646;2023-04-30T09:20:21;4.35;;;3.00;;
28724;SDS011;43472;48.980;9.646;2023-04-30T09:25:36;3.15;;;2.50;;
28724;SDS011;43472;48.980;9.646;2023-04-30T09:30:40;4.00;;;2.60;;
28724;SDS011;43472;48.980;9.646;2023-04-30T09:35:43;5.65;;;2.88;;
28724;SDS011;43472;48.980;9.646;2023-04-30T09:40:45;5.55;;;2.70;;
28724;SDS011;43472;48.980;9.646;2023-04-30T09:45:48;4.28;;;2.90;;
28724;SDS011;43472;48.980;9.646;2023-04-30T09:50:51;16.00;;;8.60;;
28724;SDS011;43472;48.980;9.646;2023-04-30T09:55:54;4.72;;;3.47;;
28724;SDS011;43472;48.980;9.646;2023-04-30T10:00:58;3.75;;;3.35;;
28724;SDS011;43472;48.980;9.646;2023-04-30T10:06:02;10.13;;;3.40;;
28724;SDS011;43472;48.980;9.646;2023-04-30T10:11:07;4.60;;;3.17;;
28724;SDS011;43472;48.980;9.646;2023-04-30T10:16:23;5.18;;;3.78;;
28724;SDS011;43472;48.980;9.646;2023-04-30T10:21:31;4.60;;;3.47;;
28724;SDS011;43472;48.980;9.646;2023-04-30T10:26:34;4.50;;;3.90;;
28724;SDS011;43472;48.980;9.646;2023-04-30T10:31:39;4.30;;;3.40;;
28724;SDS011;43472;48.980;9.646;2023-04-30T10:41:45;7.32;;;3.28;;
28724;SDS011;43472;48.980;9.646;2023-04-30T10:46:47;3.40;;;3.10;;
28724;SDS011;43472;48.980;9.646;2023-04-30T10:51:50;5.22;;;3.40;;
28724;SDS011;43472;48.980;9.646;2023-04-30T10:57:13;6.35;;;3.33;;
28724;SDS011;43472;48.980;9.646;2023-04-30T11:02:18;4.03;;;3.58;;
28724;SDS011;43472;48.980;9.646;2023-04-30T11:07:24;2.80;;;2.47;;
28724;SDS011;43472;48.980;9.646;2023-04-30T11:12:26;4.25;;;2.88;;
28724;SDS011;43472;48.980;9.646;2023-04-30T11:17:29;4.35;;;3.05;;
28724;SDS011;43472;48.980;9.646;2023-04-30T11:22:32;3.95;;;2.92;;
28724;SDS011;43472;48.980;9.646;2023-04-30T11:27:41;5.25;;;3.10;;
28724;SDS011;43472;48.980;9.646;2023-04-30T11:32:46;3.72;;;3.08;;
28724;SDS011;43472;48.980;9.646;2023-04-30T11:37:49;4.43;;;2.75;;
28724;SDS011;43472;48.980;9.646;2023-04-30T11:42:56;14.18;;;4.20;;
28724;SDS011;43472;48.980;9.646;2023-04-30T11:47:58;6.80;;;2.75;;
28724;SDS011;43472;48.980;9.646;2023-04-30T11:53:00;4.80;;;3.13;;
28724;SDS011;43472;48.980;9.646;2023-04-30T11:58:07;4.00;;;3.10;;
28724;SDS011;43472;48.980;9.646;2023-04-30T12:03:12;4.53;;;2.92;;
28724;SDS011;43472;48.980;9.646;2023-04-30T12:08:17;48.95;;;29.95;;
28724;SDS011;43472;48.980;9.646;2023-04-30T12:13:20;7.50;;;3.65;;
28724;SDS011;43472;48.980;9.646;2023-04-30T12:18:21;5.28;;;2.80;;
28724;SDS011;43472;48.980;9.646;2023-04-30T12:23:24;5.50;;;2.90;;
28724;SDS011;43472;48.980;9.646;2023-04-30T12:28:26;4.53;;;2.78;;
28724;SDS011;43472;48.980;9.646;2023-04-30T12:33:31;4.60;;;3.10;;
28724;SDS011;43472;48.980;9.646;2023-04-30T12:38:33;8.30;;;2.70;;
28724;SDS011;43472;48.980;9.646;2023-04-30T12:43:35;3.72;;;3.03;;
28724;SDS011;43472;48.980;9.646;2023-04-30T12:48:43;3.10;;;2.80;;
28724;SDS011;43472;48.980;9.646;2023-04-30T12:53:45;3.17;;;2.67;;
28724;SDS011;43472;48.980;9.646;2023-04-30T12:58:47;4.78;;;3.13;;
28724;SDS011;43472;48.980;9.646;2023-04-30T13:03:51;3.65;;;2.83;;
28724;SDS011;43472;48.980;9.646;2023-04-30T13:08:54;6.32;;;2.38;;
28724;SDS011;43472;48.980;9.646;2023-04-30T13:14:12;5.03;;;2.70;;
28724;SDS011;43472;48.980;9.646;2023-04-30T13:19:14;3.45;;;2.75;;
28724;SDS011;43472;48.980;9.646;2023-04-30T13:24:16;2.78;;;2.30;;
28724;SDS011;43472;48.980;9.646;2023-04-30T13:29:19;5.22;;;2.40;;
28724;SDS011;43472;48.980;9.646;2023-04-30T13:34:36;2.40;;;2.08;;
28724;SDS011;43472;48.980;9.646;2023-04-30T13:39:55;3.28;;;2.42;;
28724;SDS011;43472;48.980;9.646;2023-04-30T13:44:58;3.83;;;1.92;;
28724;SDS011;43472;48.980;9.646;2023-04-30T13:50:00;2.22;;;1.75;;
28724;SDS011;43472;48.980;9.646;2023-04-30T13:55:06;2.72;;;2.20;;
28724;SDS011;43472;48.980;9.646;2023-04-30T14:00:12;3.08;;;1.75;;
28724;SDS011;43472;48.980;9.646;2023-04-30T14:05:17;3.40;;;1.92;;
28724;SDS011;43472;48.980;9.646;2023-04-30T14:10:19;3.97;;;2.60;;
28724;SDS011;43472;48.980;9.646;2023-04-30T14:15:21;3.15;;;2.30;;
28724;SDS011;43472;48.980;9.646;2023-04-30T14:20:23;2.53;;;2.00;;
28724;SDS011;43472;48.980;9.646;2023-04-30T14:25:35;4.03;;;2.22;;
28724;SDS011;43472;48.980;9.646;2023-04-30T14:30:37;3.80;;;1.98;;
28724;SDS011;43472;48.980;9.646;2023-04-30T14:35:39;3.75;;;2.40;;
28724;SDS011;43472;48.980;9.646;2023-04-30T14:40:42;5.82;;;2.50;;
28724;SDS011;43472;48.980;9.646;2023-04-30T14:45:44;2.63;;;2.00;;
28724;SDS011;43472;48.980;9.646;2023-04-30T14:50:46;2.17;;;1.98;;
28724;SDS011;43472;48.980;9.646;2023-04-30T14:55:48;4.18;;;2.10;;
28724;SDS011;43472;48.980;9.646;2023-04-30T15:00:50;2.20;;;1.95;;
28724;SDS011;43472;48.980;9.646;2023-04-30T15:05:52;4.10;;;1.80;;
28724;SDS011;43472;48.980;9.646;2023-04-30T15:10:54;4.28;;;2.03;;
28724;SDS011;43472;48.980;9.646;2023-04-30T15:15:57;5.65;;;1.83;;
28724;SDS011;43472;48.980;9.646;2023-04-30T15:20:59;2.42;;;1.80;;
28724;SDS011;43472;48.980;9.646;2023-04-30T15:26:02;5.30;;;1.88;;
28724;SDS011;43472;48.980;9.646;2023-04-30T15:31:04;3.53;;;2.08;;
28724;SDS011;43472;48.980;9.646;2023-04-30T15:36:07;2.88;;;2.28;;
28724;SDS011;43472;48.980;9.646;2023-04-30T15:41:23;2.25;;;2.00;;
28724;SDS011;43472;48.980;9.646;2023-04-30T15:46:41;4.05;;;2.10;;
28724;SDS011;43472;48.980;9.646;2023-04-30T15:51:44;2.33;;;1.95;;
28724;SDS011;43472;48.980;9.646;2023-04-30T15:56:46;2.15;;;1.95;;
28724;SDS011;43472;48.980;9.646;2023-04-30T16:02:04;3.35;;;2.13;;
28724;SDS011;43472;48.980;9.646;2023-04-30T16:07:07;2.92;;;1.60;;
28724;SDS011;43472;48.980;9.646;2023-04-30T16:12:23;3.45;;;2.08;;
28724;SDS011;43472;48.980;9.646;2023-04-30T16:17:26;7.00;;;1.85;;
28724;SDS011;43472;48.980;9.646;2023-04-30T16:22:29;3.30;;;2.00;;
28724;SDS011;43472;48.980;9.646;2023-04-30T16:27:31;2.38;;;1.90;;
28724;SDS011;43472;48.980;9.646;2023-04-30T16:32:36;2.53;;;2.05;;
28724;SDS011;43472;48.980;9.646;2023-04-30T16:37:38;2.38;;;2.00;;
28724;SDS011;43472;48.980;9.646;2023-04-30T16:42:44;8.02;;;2.25;;
28724;SDS011;43472;48.980;9.646;2023-04-30T16:47:49;2.65;;;2.10;;
28724;SDS011;43472;48.980;9.646;2023-04-30T16:52:51;4.28;;;2.33;;
28724;SDS011;43472;48.980;9.646;2023-04-30T16:58:11;6.13;;;3.42;;
28724;SDS011;43472;48.980;9.646;2023-04-30T17:03:13;2.58;;;2.10;;
28724;SDS011;43472;48.980;9.646;2023-04-30T17:08:15;3.60;;;2.00;;
28724;SDS011;43472;48.980;9.646;2023-04-30T17:13:32;4.25;;;2.15;;
28724;SDS011;43472;48.980;9.646;2023-04-30T17:18:48;1.95;;;1.80;;
28724;SDS011;43472;48.980;9.646;2023-04-30T17:23:50;4.13;;;1.92;;
28724;SDS011;43472;48.980;9.646;2023-04-30T17:28:52;4.63;;;1.98;;
28724;SDS011;43472;48.980;9.646;2023-04-30T17:33:56;2.90;;;2.10;;
28724;SDS011;43472;48.980;9.646;2023-04-30T17:39:04;7.03;;;2.38;;
28724;SDS011;43472;48.980;9.646;2023-04-30T17:44:09;7.97;;;2.17;;
28724;SDS011;43472;48.980;9.646;2023-04-30T17:49:11;5.47;;;2.30;;
28724;SDS011;43472;48.980;9.646;2023-04-30T17:54:13;24.98;;;12.80;;
28724;SDS011;43472;48.980;9.646;2023-04-30T17:59:16;6.25;;;2.58;;
28724;SDS011;43472;48.980;9.646;2023-04-30T18:04:18;5.80;;;2.55;;
28724;SDS011;43472;48.980;9.646;2023-04-30T18:09:21;5.45;;;1.98;;
28724;SDS011;43472;48.980;9.646;2023-04-30T18:14:37;8.85;;;5.10;;
28724;SDS011;43472;48.980;9.646;2023-04-30T18:19:39;3.95;;;2.65;;
28724;SDS011;43472;48.980;9.646;2023-04-30T18:24:44;5.38;;;2.30;;
28724;SDS011;43472;48.980;9.646;2023-04-30T18:29:46;4.13;;;2.60;;
28724;SDS011;43472;48.980;9.646;2023-04-30T18:34:49;3.40;;;2.55;;
28724;SDS011;43472;48.980;9.646;2023-04-30T18:39:51;3.42;;;2.25;;
28724;SDS011;43472;48.980;9.646;2023-04-30T18:44:54;5.72;;;3.10;;
28724;SDS011;43472;48.980;9.646;2023-04-30T18:50:00;8.88;;;5.78;;
28724;SDS011;43472;48.980;9.646;2023-04-30T18:55:02;9.30;;;5.38;;
28724;SDS011;43472;48.980;9.646;2023-04-30T19:00:09;10.05;;;6.47;;
28724;SDS011;43472;48.980;9.646;2023-04-30T19:05:14;14.38;;;7.30;;
28724;SDS011;43472;48.980;9.646;2023-04-30T19:10:20;10.23;;;4.82;;
28724;SDS011;43472;48.980;9.646;2023-04-30T19:15:40;11.20;;;3.67;;
28724;SDS011;43472;48.980;9.646;2023-04-30T19:22:03;8.45;;;5.25;;
28724;SDS011;43472;48.980;9.646;2023-04-30T19:27:05;6.45;;;3.67;;
28724;SDS011;43472;48.980;9.646;2023-04-30T19:32:07;5.32;;;3.38;;
28724;SDS011;43472;48.980;9.646;2023-04-30T19:37:10;10.30;;;5.13;;
28724;SDS011;43472;48.980;9.646;2023-04-30T19:42:11;14.10;;;7.82;;
28724;SDS011;43472;48.980;9.646;2023-04-30T19:47:14;9.95;;;5.60;;
28724;SDS011;43472;48.980;9.646;2023-04-30T19:52:15;46.88;;;24.13;;
28724;SDS011;43472;48.980;9.646;2023-04-30T19:57:17;12.88;;;7.72;;
28724;SDS011;43472;48.980;9.646;2023-04-30T20:02:19;8.98;;;5.35;;
28724;SDS011;43472;48.980;9.646;2023-04-30T20:07:21;10.80;;;5.55;;
28724;SDS011;43472;48.980;9.646;2023-04-30T20:12:23;17.98;;;8.27;;
28724;SDS011;43472;48.980;9.646;2023-04-30T20:17:25;16.58;;;9.07;;
28724;SDS011;43472;48.980;9.646;2023-04-30T20:22:28;16.02;;;7.88;;
28724;SDS011;43472;48.980;9.646;2023-04-30T20:27:29;10.02;;;4.63;;
28724;SDS011;43472;48.980;9.646;2023-04-30T20:32:32;7.43;;;4.05;;
28724;SDS011;43472;48.980;9.646;2023-04-30T20:37:35;7.32;;;4.22;;
28724;SDS011;43472;48.980;9.646;2023-04-30T20:42:37;9.02;;;4.63;;
28724;SDS011;43472;48.980;9.646;2023-04-30T20:47:40;9.23;;;5.38;;
28724;SDS011;43472;48.980;9.646;2023-04-30T20:52:42;7.10;;;5.32;;
28724;SDS011;43472;48.980;9.646;2023-04-30T20:57:44;7.03;;;4.80;;
28724;SDS011;43472;48.980;9.646;2023-04-30T21:02:46;7.07;;;5.07;;
28724;SDS011;43472;48.980;9.646;2023-04-30T21:07:49;6.53;;;4.50;;
28724;SDS011;43472;48.980;9.646;2023-04-30T21:12:50;7.80;;;4.40;;
28724;SDS011;43472;48.980;9.646;2023-04-30T21:17:53;6.90;;;3.97;;
28724;SDS011;43472;48.980;9.646;2023-04-30T21:22:54;9.15;;;5.03;;
28724;SDS011;43472;48.980;9.646;2023-04-30T21:27:56;6.85;;;4.18;;
28724;SDS011;43472;48.980;9.646;2023-04-30T21:32:58;12.13;;;4.10;;
28724;SDS011;43472;48.980;9.646;2023-04-30T21:38:00;6.50;;;4.68;;
28724;SDS011;43472;48.980;9.646;2023-04-30T21:43:02;10.07;;;4.97;;
28724;SDS011;43472;48.980;9.646;2023-04-30T21:48:04;11.50;;;7.75;;
28724;SDS011;43472;48.980;9.646;2023-04-30T21:53:07;9.00;;;5.13;;
28724;SDS011;43472;48.980;9.646;2023-04-30T21:58:10;7.47;;;4.78;;
28724;SDS011;43472;48.980;9.646;2023-04-30T22:03:12;7.43;;;5.07;;
28724;SDS011;43472;48.980;9.646;2023-04-30T22:08:16;9.98;;;5.47;;
28724;SDS011;43472;48.980;9.646;2023-04-30T22:13:18;12.75;;;6.45;;
28724;SDS011;43472;48.980;9.646;2023-04-30T22:18:20;8.95;;;6.90;;
28724;SDS011;43472;48.980;9.646;2023-04-30T22:23:22;9.52;;;7.00;;
28724;SDS011;43472;48.980;9.646;2023-04-30T22:28:24;9.77;;;6.20;;
28724;SDS011;43472;48.980;9.646;2023-04-30T22:33:26;12.20;;;6.03;;
28724;SDS011;43472;48.980;9.646;2023-04-30T22:38:28;12.57;;;5.97;;
28724;SDS011;43472;48.980;9.646;2023-04-30T22:43:31;14.73;;;5.95;;
28724;SDS011;43472;48.980;9.646;2023-04-30T22:48:33;8.73;;;5.35;;
28724;SDS011;43472;48.980;9.646;2023-04-30T22:53:36;8.55;;;5.38;;
28724;SDS011;43472;48.980;9.646;2023-04-30T22:58:38;10.48;;;6.03;;
28724;SDS011;43472;48.980;9.646;2023-04-30T23:03:40;8.95;;;5.80;;
28724;SDS011;43472;48.980;9.646;2023-04-30T23:08:42;9.25;;;5.60;;
28724;SDS011;43472;48.980;9.646;2023-04-30T23:13:44;6.70;;;5.40;;
28724;SDS011;43472;48.980;9.646;2023-04-30T23:18:46;8.63;;;6.50;;
28724;SDS011;43472;48.980;9.646;2023-04-30T23:23:49;9.75;;;5.40;;
28724;SDS011;43472;48.980;9.646;2023-04-30T23:28:50;13.75;;;6.55;;
28724;SDS011;43472;48.980;9.646;2023-04-30T23:33:52;14.07;;;6.38;;
28724;SDS011;43472;48.980;9.646;2023-04-30T23:38:54;8.43;;;6.40;;
28724;SDS011;43472;48.980;9.646;2023-04-30T23:43:56;14.00;;;6.18;;
28724;SDS011;43472;48.980;9.646;2023-04-30T23:48:57;9.82;;;6.00;;
28724;SDS011;43472;48.980;9.646;2023-04-30T23:53:59;9.07;;;4.95;;
28724;SDS011;43472;48.980;9.646;2023-04-30T23:59:01;8.27;;;5.00;;
